Hsin-tien, Taiwan
Current Conditions -  °F | °C
As of 12:00 PM on Tuesday 21 Oct 2014 (Local Time) from RCSS Reporting Station
Few Clouds Few Clouds  
Wind Chill: 88°   Ceiling: Unl
Heat Index: 91°   Visibility: 6mi
Dew Point: 68°   Wind: 7mph
Humidity: 52%   Direction: 290°WNW
Pressure: 29.94"   Gusts: NA
Location:  24.95°N, 121.53°E
Report Text: RCSS 210400Z 29006KT 250V350 9000 FEW030 31/20 Q1014 NOSIGRMK A2997
Loading
Personal Weather Stations






























Interactive Weather Map
Tropical Storm Tracking
New forecast layout! Learn more

10-Day Weather Forecast

Advertisements
Track Severe Weather on mobile